Guaizihu, China
Current Conditions -  °F | °C
As of 6:00 AM on Friday 19 Dec 2014 (Local Time) from ZLLL Reporting Station
Clear Clear  
Wind Chill:   Ceiling: Unl
Heat Index:   Visibility: 6mi
Dew Point: -6°   Wind: 4mph
Humidity: 52%   Direction: 330°NNW
Pressure: 30.21"   Gusts: NA
Location:  41.37°N, 102.37°E
Report Text: ZLLL 182200Z 33002MPS CAVOK M13/M21 Q1023 NOSIG
Loading
Personal Weather Stations






























Interactive Weather Map New forecast layout! Learn more

10-Day Weather Forecast

Advertisements
Track Severe Weather on mobile